sensor_id;sensor_type;location;lat;lon;timestamp;P1;durP1;ratioP1;P2;durP2;ratioP2
45932;SDS011;51011;46.790;17.184;2022-08-04T00:00:21;6.07;;;3.20;;
45932;SDS011;51011;46.790;17.184;2022-08-04T00:02:59;3.65;;;3.28;;
45932;SDS011;51011;46.790;17.184;2022-08-04T00:10:59;3.35;;;3.03;;
45932;SDS011;51011;46.790;17.184;2022-08-04T00:13:27;4.80;;;3.55;;
45932;SDS011;51011;46.790;17.184;2022-08-04T00:16:01;4.38;;;3.30;;
45932;SDS011;51011;46.790;17.184;2022-08-04T00:18:31;4.32;;;3.53;;
45932;SDS011;51011;46.790;17.184;2022-08-04T00:20:59;5.88;;;3.70;;
45932;SDS011;51011;46.790;17.184;2022-08-04T00:23:29;3.78;;;3.22;;
45932;SDS011;51011;46.790;17.184;2022-08-04T00:25:58;5.13;;;3.40;;
45932;SDS011;51011;46.790;17.184;2022-08-04T00:28:25;3.88;;;3.47;;
45932;SDS011;51011;46.790;17.184;2022-08-04T00:30:51;5.82;;;3.08;;
45932;SDS011;51011;46.790;17.184;2022-08-04T00:33:17;4.53;;;3.13;;
45932;SDS011;51011;46.790;17.184;2022-08-04T00:35:44;5.85;;;3.35;;
45932;SDS011;51011;46.790;17.184;2022-08-04T00:38:10;4.25;;;3.15;;
45932;SDS011;51011;46.790;17.184;2022-08-04T00:40:42;4.00;;;3.25;;
45932;SDS011;51011;46.790;17.184;2022-08-04T00:43:22;4.85;;;3.72;;
45932;SDS011;51011;46.790;17.184;2022-08-04T00:46:02;6.70;;;3.40;;
45932;SDS011;51011;46.790;17.184;2022-08-04T01:03:13;4.35;;;3.83;;
45932;SDS011;51011;46.790;17.184;2022-08-04T01:16:30;4.72;;;3.65;;
45932;SDS011;51011;46.790;17.184;2022-08-04T01:19:00;4.28;;;3.78;;
45932;SDS011;51011;46.790;17.184;2022-08-04T01:26:52;6.22;;;3.60;;
45932;SDS011;51011;46.790;17.184;2022-08-04T01:29:22;5.10;;;3.63;;
45932;SDS011;51011;46.790;17.184;2022-08-04T01:34:38;5.07;;;3.72;;
45932;SDS011;51011;46.790;17.184;2022-08-04T01:37:20;4.85;;;3.67;;
45932;SDS011;51011;46.790;17.184;2022-08-04T01:39:59;6.65;;;3.67;;
45932;SDS011;51011;46.790;17.184;2022-08-04T01:42:30;5.10;;;3.90;;
45932;SDS011;51011;46.790;17.184;2022-08-04T01:44:59;7.07;;;3.97;;
45932;SDS011;51011;46.790;17.184;2022-08-04T01:47:27;4.70;;;3.70;;
45932;SDS011;51011;46.790;17.184;2022-08-04T01:49:53;5.45;;;3.70;;
45932;SDS011;51011;46.790;17.184;2022-08-04T01:52:24;5.13;;;3.28;;
45932;SDS011;51011;46.790;17.184;2022-08-04T01:54:51;5.00;;;3.80;;
45932;SDS011;51011;46.790;17.184;2022-08-04T01:57:17;4.72;;;3.88;;
45932;SDS011;51011;46.790;17.184;2022-08-04T01:59:44;5.28;;;4.10;;
45932;SDS011;51011;46.790;17.184;2022-08-04T02:02:11;3.80;;;3.40;;
45932;SDS011;51011;46.790;17.184;2022-08-04T02:04:37;5.18;;;3.60;;
45932;SDS011;51011;46.790;17.184;2022-08-04T02:09:37;4.13;;;3.70;;
45932;SDS011;51011;46.790;17.184;2022-08-04T02:12:29;4.10;;;3.70;;
45932;SDS011;51011;46.790;17.184;2022-08-04T02:15:11;5.38;;;4.00;;
45932;SDS011;51011;46.790;17.184;2022-08-04T02:20:08;4.25;;;3.80;;
45932;SDS011;51011;46.790;17.184;2022-08-04T02:22:38;4.72;;;4.00;;
45932;SDS011;51011;46.790;17.184;2022-08-04T02:25:08;7.18;;;3.75;;
45932;SDS011;51011;46.790;17.184;2022-08-04T02:27:39;4.75;;;4.10;;
45932;SDS011;51011;46.790;17.184;2022-08-04T02:30:15;5.43;;;3.67;;
45932;SDS011;51011;46.790;17.184;2022-08-04T02:32:42;4.22;;;3.70;;
45932;SDS011;51011;46.790;17.184;2022-08-04T02:35:15;4.50;;;3.80;;
45932;SDS011;51011;46.790;17.184;2022-08-04T02:37:49;4.95;;;3.85;;
45932;SDS011;51011;46.790;17.184;2022-08-04T02:40:20;4.70;;;3.75;;
45932;SDS011;51011;46.790;17.184;2022-08-04T02:42:46;7.28;;;3.63;;
45932;SDS011;51011;46.790;17.184;2022-08-04T02:45:12;4.25;;;3.83;;
45932;SDS011;51011;46.790;17.184;2022-08-04T02:47:37;4.80;;;3.83;;
45932;SDS011;51011;46.790;17.184;2022-08-04T02:50:03;7.35;;;4.18;;
45932;SDS011;51011;46.790;17.184;2022-08-04T02:52:30;5.93;;;4.15;;
45932;SDS011;51011;46.790;17.184;2022-08-04T02:54:57;4.82;;;4.00;;
45932;SDS011;51011;46.790;17.184;2022-08-04T02:57:25;4.47;;;4.03;;
45932;SDS011;51011;46.790;17.184;2022-08-04T03:00:11;4.38;;;3.80;;
45932;SDS011;51011;46.790;17.184;2022-08-04T03:05:24;6.63;;;4.20;;
45932;SDS011;51011;46.790;17.184;2022-08-04T03:13:21;4.57;;;3.67;;
45932;SDS011;51011;46.790;17.184;2022-08-04T03:24:38;5.45;;;4.10;;
45932;SDS011;51011;46.790;17.184;2022-08-04T03:38:46;5.40;;;4.32;;
45932;SDS011;51011;46.790;17.184;2022-08-04T03:44:05;7.00;;;4.28;;
45932;SDS011;51011;46.790;17.184;2022-08-04T03:47:05;5.30;;;3.88;;
45932;SDS011;51011;46.790;17.184;2022-08-04T04:38:25;4.80;;;4.30;;
45932;SDS011;51011;46.790;17.184;2022-08-04T04:40:58;6.30;;;4.78;;
45932;SDS011;51011;46.790;17.184;2022-08-04T04:43:43;5.80;;;4.18;;
45932;SDS011;51011;46.790;17.184;2022-08-04T04:49:04;6.25;;;4.32;;
45932;SDS011;51011;46.790;17.184;2022-08-04T04:51:47;5.68;;;4.53;;
45932;SDS011;51011;46.790;17.184;2022-08-04T04:57:09;6.30;;;4.15;;
45932;SDS011;51011;46.790;17.184;2022-08-04T04:59:48;6.00;;;4.32;;
45932;SDS011;51011;46.790;17.184;2022-08-04T05:18:56;7.22;;;4.43;;
45932;SDS011;51011;46.790;17.184;2022-08-04T05:21:32;10.65;;;7.43;;
45932;SDS011;51011;46.790;17.184;2022-08-04T05:24:04;11.45;;;10.35;;
45932;SDS011;51011;46.790;17.184;2022-08-04T05:26:34;5.45;;;4.15;;
45932;SDS011;51011;46.790;17.184;2022-08-04T05:29:08;5.78;;;4.15;;
45932;SDS011;51011;46.790;17.184;2022-08-04T05:31:40;6.00;;;4.22;;
45932;SDS011;51011;46.790;17.184;2022-08-04T05:36:49;6.15;;;4.47;;
45932;SDS011;51011;46.790;17.184;2022-08-04T05:39:30;5.00;;;4.13;;
45932;SDS011;51011;46.790;17.184;2022-08-04T05:42:06;14.90;;;4.15;;
45932;SDS011;51011;46.790;17.184;2022-08-04T05:44:32;8.70;;;4.30;;
45932;SDS011;51011;46.790;17.184;2022-08-04T05:46:58;7.32;;;4.30;;
45932;SDS011;51011;46.790;17.184;2022-08-04T05:49:26;8.52;;;3.97;;
45932;SDS011;51011;46.790;17.184;2022-08-04T05:51:53;6.43;;;4.28;;
45932;SDS011;51011;46.790;17.184;2022-08-04T05:54:20;8.35;;;3.97;;
45932;SDS011;51011;46.790;17.184;2022-08-04T05:56:46;4.80;;;3.53;;
45932;SDS011;51011;46.790;17.184;2022-08-04T05:59:12;7.47;;;3.92;;
45932;SDS011;51011;46.790;17.184;2022-08-04T06:01:39;8.60;;;3.67;;
45932;SDS011;51011;46.790;17.184;2022-08-04T06:04:05;6.82;;;3.72;;
45932;SDS011;51011;46.790;17.184;2022-08-04T06:06:31;10.85;;;4.60;;
45932;SDS011;51011;46.790;17.184;2022-08-04T06:08:56;8.13;;;4.18;;
45932;SDS011;51011;46.790;17.184;2022-08-04T06:11:22;15.05;;;9.40;;
45932;SDS011;51011;46.790;17.184;2022-08-04T06:13:52;8.68;;;4.35;;
45932;SDS011;51011;46.790;17.184;2022-08-04T06:16:20;11.95;;;4.55;;
45932;SDS011;51011;46.790;17.184;2022-08-04T06:18:48;9.60;;;4.40;;
45932;SDS011;51011;46.790;17.184;2022-08-04T06:21:15;6.72;;;4.05;;
45932;SDS011;51011;46.790;17.184;2022-08-04T06:23:43;7.65;;;3.70;;
45932;SDS011;51011;46.790;17.184;2022-08-04T06:26:09;3.92;;;3.50;;
45932;SDS011;51011;46.790;17.184;2022-08-04T06:28:36;5.05;;;3.60;;
45932;SDS011;51011;46.790;17.184;2022-08-04T06:31:01;7.10;;;4.07;;
45932;SDS011;51011;46.790;17.184;2022-08-04T06:33:30;6.18;;;3.83;;
45932;SDS011;51011;46.790;17.184;2022-08-04T06:36:03;6.75;;;3.38;;
45932;SDS011;51011;46.790;17.184;2022-08-04T06:38:30;6.03;;;3.83;;
45932;SDS011;51011;46.790;17.184;2022-08-04T06:40:57;8.10;;;3.85;;
45932;SDS011;51011;46.790;17.184;2022-08-04T06:43:24;5.60;;;3.80;;
45932;SDS011;51011;46.790;17.184;2022-08-04T06:45:51;7.57;;;4.03;;
45932;SDS011;51011;46.790;17.184;2022-08-04T06:48:17;6.45;;;4.25;;
45932;SDS011;51011;46.790;17.184;2022-08-04T06:50:43;6.53;;;3.90;;
45932;SDS011;51011;46.790;17.184;2022-08-04T06:53:12;7.00;;;3.72;;
45932;SDS011;51011;46.790;17.184;2022-08-04T06:55:38;5.95;;;3.72;;
45932;SDS011;51011;46.790;17.184;2022-08-04T06:58:06;7.90;;;3.65;;
45932;SDS011;51011;46.790;17.184;2022-08-04T07:00:31;6.32;;;3.83;;
45932;SDS011;51011;46.790;17.184;2022-08-04T07:02:58;5.60;;;4.03;;
45932;SDS011;51011;46.790;17.184;2022-08-04T07:05:24;6.47;;;3.72;;
45932;SDS011;51011;46.790;17.184;2022-08-04T07:07:50;7.10;;;3.70;;
45932;SDS011;51011;46.790;17.184;2022-08-04T07:10:15;8.45;;;4.03;;
45932;SDS011;51011;46.790;17.184;2022-08-04T07:12:42;8.02;;;3.65;;
45932;SDS011;51011;46.790;17.184;2022-08-04T07:15:08;5.20;;;3.50;;
45932;SDS011;51011;46.790;17.184;2022-08-04T07:17:35;5.35;;;3.60;;
45932;SDS011;51011;46.790;17.184;2022-08-04T07:20:01;7.20;;;3.67;;
45932;SDS011;51011;46.790;17.184;2022-08-04T07:22:30;7.82;;;3.70;;
45932;SDS011;51011;46.790;17.184;2022-08-04T07:24:57;15.60;;;4.72;;
45932;SDS011;51011;46.790;17.184;2022-08-04T07:27:23;6.15;;;3.60;;
45932;SDS011;51011;46.790;17.184;2022-08-04T07:29:50;7.05;;;3.78;;
45932;SDS011;51011;46.790;17.184;2022-08-04T07:32:17;6.75;;;3.33;;
45932;SDS011;51011;46.790;17.184;2022-08-04T07:34:44;5.80;;;3.30;;
45932;SDS011;51011;46.790;17.184;2022-08-04T07:37:14;4.43;;;3.17;;
45932;SDS011;51011;46.790;17.184;2022-08-04T07:39:40;5.32;;;3.72;;
45932;SDS011;51011;46.790;17.184;2022-08-04T07:42:06;6.20;;;3.17;;
45932;SDS011;51011;46.790;17.184;2022-08-04T07:44:32;4.80;;;3.40;;
45932;SDS011;51011;46.790;17.184;2022-08-04T07:46:59;8.57;;;3.60;;
45932;SDS011;51011;46.790;17.184;2022-08-04T07:49:26;5.50;;;3.47;;
45932;SDS011;51011;46.790;17.184;2022-08-04T07:51:52;6.68;;;3.88;;
45932;SDS011;51011;46.790;17.184;2022-08-04T07:54:18;5.40;;;3.90;;
45932;SDS011;51011;46.790;17.184;2022-08-04T07:56:44;4.45;;;3.75;;
45932;SDS011;51011;46.790;17.184;2022-08-04T07:59:10;5.20;;;3.80;;
45932;SDS011;51011;46.790;17.184;2022-08-04T08:01:36;8.45;;;4.22;;
45932;SDS011;51011;46.790;17.184;2022-08-04T08:04:02;6.28;;;4.07;;
45932;SDS011;51011;46.790;17.184;2022-08-04T08:06:29;6.22;;;4.10;;
45932;SDS011;51011;46.790;17.184;2022-08-04T08:08:55;6.95;;;4.20;;
45932;SDS011;51011;46.790;17.184;2022-08-04T08:11:21;5.05;;;4.38;;
45932;SDS011;51011;46.790;17.184;2022-08-04T08:13:47;5.68;;;3.95;;
45932;SDS011;51011;46.790;17.184;2022-08-04T08:16:12;5.68;;;4.15;;
45932;SDS011;51011;46.790;17.184;2022-08-04T08:18:38;5.18;;;4.00;;
45932;SDS011;51011;46.790;17.184;2022-08-04T08:21:04;6.72;;;4.15;;
45932;SDS011;51011;46.790;17.184;2022-08-04T08:23:30;6.40;;;4.25;;
45932;SDS011;51011;46.790;17.184;2022-08-04T08:25:57;6.78;;;4.20;;
45932;SDS011;51011;46.790;17.184;2022-08-04T08:28:23;5.82;;;4.13;;
45932;SDS011;51011;46.790;17.184;2022-08-04T08:30:49;5.25;;;4.22;;
45932;SDS011;51011;46.790;17.184;2022-08-04T08:33:14;4.38;;;3.97;;
45932;SDS011;51011;46.790;17.184;2022-08-04T08:35:44;5.57;;;4.30;;
45932;SDS011;51011;46.790;17.184;2022-08-04T09:02:28;6.32;;;4.07;;
45932;SDS011;51011;46.790;17.184;2022-08-04T09:05:07;6.22;;;4.35;;
45932;SDS011;51011;46.790;17.184;2022-08-04T09:10:25;5.88;;;4.00;;
45932;SDS011;51011;46.790;17.184;2022-08-04T09:13:03;5.65;;;4.30;;
45932;SDS011;51011;46.790;17.184;2022-08-04T09:15:35;4.85;;;4.20;;
45932;SDS011;51011;46.790;17.184;2022-08-04T09:18:22;4.38;;;3.80;;
45932;SDS011;51011;46.790;17.184;2022-08-04T09:20:55;6.78;;;4.20;;
45932;SDS011;51011;46.790;17.184;2022-08-04T09:29:29;4.97;;;4.10;;
45932;SDS011;51011;46.790;17.184;2022-08-04T09:32:07;5.03;;;3.40;;
45932;SDS011;51011;46.790;17.184;2022-08-04T09:37:42;4.13;;;3.72;;
45932;SDS011;51011;46.790;17.184;2022-08-04T09:40:13;7.05;;;4.40;;
45932;SDS011;51011;46.790;17.184;2022-08-04T09:48:34;5.32;;;3.63;;
45932;SDS011;51011;46.790;17.184;2022-08-04T09:51:09;4.78;;;3.40;;
45932;SDS011;51011;46.790;17.184;2022-08-04T09:53:48;6.43;;;3.50;;
45932;SDS011;51011;46.790;17.184;2022-08-04T09:56:27;5.25;;;3.90;;
45932;SDS011;51011;46.790;17.184;2022-08-04T10:01:36;3.72;;;3.30;;
45932;SDS011;51011;46.790;17.184;2022-08-04T10:04:03;4.10;;;3.70;;
45932;SDS011;51011;46.790;17.184;2022-08-04T10:12:19;4.15;;;2.90;;
45932;SDS011;51011;46.790;17.184;2022-08-04T10:14:52;4.25;;;3.15;;
45932;SDS011;51011;46.790;17.184;2022-08-04T10:17:47;4.38;;;3.25;;
45932;SDS011;51011;46.790;17.184;2022-08-04T10:20:29;4.68;;;3.67;;
45932;SDS011;51011;46.790;17.184;2022-08-04T10:23:35;3.97;;;3.25;;
45932;SDS011;51011;46.790;17.184;2022-08-04T10:29:17;6.07;;;3.30;;
45932;SDS011;51011;46.790;17.184;2022-08-04T10:40:32;5.07;;;3.03;;
45932;SDS011;51011;46.790;17.184;2022-08-04T10:51:27;5.03;;;3.47;;
45932;SDS011;51011;46.790;17.184;2022-08-04T10:54:02;4.00;;;3.58;;
45932;SDS011;51011;46.790;17.184;2022-08-04T10:56:34;5.20;;;3.35;;
45932;SDS011;51011;46.790;17.184;2022-08-04T10:59:20;4.57;;;3.60;;
45932;SDS011;51011;46.790;17.184;2022-08-04T11:01:51;4.15;;;3.67;;
45932;SDS011;51011;46.790;17.184;2022-08-04T11:04:28;4.53;;;3.70;;
45932;SDS011;51011;46.790;17.184;2022-08-04T11:07:00;5.05;;;3.63;;
45932;SDS011;51011;46.790;17.184;2022-08-04T11:09:27;3.90;;;3.50;;
45932;SDS011;51011;46.790;17.184;2022-08-04T11:11:55;4.60;;;3.75;;
45932;SDS011;51011;46.790;17.184;2022-08-04T11:14:26;4.03;;;3.13;;
45932;SDS011;51011;46.790;17.184;2022-08-04T11:16:57;5.90;;;2.80;;
45932;SDS011;51011;46.790;17.184;2022-08-04T11:22:07;3.85;;;2.90;;
45932;SDS011;51011;46.790;17.184;2022-08-04T11:27:13;3.60;;;2.90;;
45932;SDS011;51011;46.790;17.184;2022-08-04T11:29:51;3.72;;;2.63;;
45932;SDS011;51011;46.790;17.184;2022-08-04T11:32:29;4.47;;;2.67;;
45932;SDS011;51011;46.790;17.184;2022-08-04T11:35:36;2.85;;;2.55;;
45932;SDS011;51011;46.790;17.184;2022-08-04T11:41:10;6.32;;;2.90;;
45932;SDS011;51011;46.790;17.184;2022-08-04T11:43:50;4.05;;;2.75;;
45932;SDS011;51011;46.790;17.184;2022-08-04T11:46:53;4.78;;;2.90;;
45932;SDS011;51011;46.790;17.184;2022-08-04T11:49:25;3.40;;;2.50;;
45932;SDS011;51011;46.790;17.184;2022-08-04T11:51:59;3.08;;;2.78;;
45932;SDS011;51011;46.790;17.184;2022-08-04T11:54:26;4.30;;;2.88;;
45932;SDS011;51011;46.790;17.184;2022-08-04T11:56:53;2.85;;;2.50;;
45932;SDS011;51011;46.790;17.184;2022-08-04T11:59:19;3.00;;;2.70;;
45932;SDS011;51011;46.790;17.184;2022-08-04T12:10:17;3.15;;;2.85;;
45932;SDS011;51011;46.790;17.184;2022-08-04T12:15:56;4.15;;;3.20;;
45932;SDS011;51011;46.790;17.184;2022-08-04T12:21:05;3.97;;;2.90;;
45932;SDS011;51011;46.790;17.184;2022-08-04T12:23:37;4.45;;;3.20;;
45932;SDS011;51011;46.790;17.184;2022-08-04T12:26:05;3.00;;;2.70;;
45932;SDS011;51011;46.790;17.184;2022-08-04T12:31:39;4.65;;;3.00;;
45932;SDS011;51011;46.790;17.184;2022-08-04T12:34:33;4.47;;;2.92;;
45932;SDS011;51011;46.790;17.184;2022-08-04T12:37:04;3.10;;;2.80;;
45932;SDS011;51011;46.790;17.184;2022-08-04T12:39:50;4.43;;;2.70;;
45932;SDS011;51011;46.790;17.184;2022-08-04T12:42:29;3.30;;;2.90;;
45932;SDS011;51011;46.790;17.184;2022-08-04T12:45:03;4.15;;;2.63;;
45932;SDS011;51011;46.790;17.184;2022-08-04T12:47:31;2.92;;;2.60;;
45932;SDS011;51011;46.790;17.184;2022-08-04T12:50:00;3.85;;;2.60;;
45932;SDS011;51011;46.790;17.184;2022-08-04T12:52:28;3.42;;;2.50;;
45932;SDS011;51011;46.790;17.184;2022-08-04T12:54:55;5.30;;;2.58;;
45932;SDS011;51011;46.790;17.184;2022-08-04T12:57:21;2.97;;;2.42;;
45932;SDS011;51011;46.790;17.184;2022-08-04T12:59:48;4.95;;;2.47;;
45932;SDS011;51011;46.790;17.184;2022-08-04T13:02:32;5.25;;;2.80;;
45932;SDS011;51011;46.790;17.184;2022-08-04T13:05:05;5.50;;;3.17;;
45932;SDS011;51011;46.790;17.184;2022-08-04T13:07:41;3.53;;;2.60;;
45932;SDS011;51011;46.790;17.184;2022-08-04T13:10:14;4.53;;;2.83;;
45932;SDS011;51011;46.790;17.184;2022-08-04T13:12:43;2.92;;;2.60;;
45932;SDS011;51011;46.790;17.184;2022-08-04T13:15:17;3.30;;;2.72;;
45932;SDS011;51011;46.790;17.184;2022-08-04T13:17:48;3.47;;;2.60;;
45932;SDS011;51011;46.790;17.184;2022-08-04T13:20:16;5.60;;;3.00;;
45932;SDS011;51011;46.790;17.184;2022-08-04T13:22:48;5.15;;;3.10;;
45932;SDS011;51011;46.790;17.184;2022-08-04T13:25:14;5.55;;;3.13;;
45932;SDS011;51011;46.790;17.184;2022-08-04T13:27:40;5.78;;;3.30;;
45932;SDS011;51011;46.790;17.184;2022-08-04T13:30:11;4.28;;;2.90;;
45932;SDS011;51011;46.790;17.184;2022-08-04T13:32:39;5.68;;;2.83;;
45932;SDS011;51011;46.790;17.184;2022-08-04T13:35:05;3.95;;;2.97;;
45932;SDS011;51011;46.790;17.184;2022-08-04T13:37:33;3.45;;;2.55;;
45932;SDS011;51011;46.790;17.184;2022-08-04T13:40:02;3.10;;;2.40;;
45932;SDS011;51011;46.790;17.184;2022-08-04T13:42:32;3.33;;;2.60;;
45932;SDS011;51011;46.790;17.184;2022-08-04T13:44:59;2.60;;;2.40;;
45932;SDS011;51011;46.790;17.184;2022-08-04T13:47:32;3.28;;;2.67;;
45932;SDS011;51011;46.790;17.184;2022-08-04T13:52:49;5.40;;;2.85;;
45932;SDS011;51011;46.790;17.184;2022-08-04T13:55:20;2.80;;;2.50;;
45932;SDS011;51011;46.790;17.184;2022-08-04T13:57:49;5.50;;;2.50;;
45932;SDS011;51011;46.790;17.184;2022-08-04T14:00:17;3.45;;;2.67;;
45932;SDS011;51011;46.790;17.184;2022-08-04T14:02:44;3.17;;;2.78;;
45932;SDS011;51011;46.790;17.184;2022-08-04T14:05:16;5.32;;;2.92;;
45932;SDS011;51011;46.790;17.184;2022-08-04T14:07:46;3.97;;;2.90;;
45932;SDS011;51011;46.790;17.184;2022-08-04T14:10:18;2.83;;;2.63;;
45932;SDS011;51011;46.790;17.184;2022-08-04T14:12:44;3.55;;;2.90;;
45932;SDS011;51011;46.790;17.184;2022-08-04T14:15:28;3.33;;;2.70;;
45932;SDS011;51011;46.790;17.184;2022-08-04T14:20:58;2.70;;;2.50;;
45932;SDS011;51011;46.790;17.184;2022-08-04T14:23:27;3.95;;;2.80;;
45932;SDS011;51011;46.790;17.184;2022-08-04T14:25:53;3.35;;;2.95;;
45932;SDS011;51011;46.790;17.184;2022-08-04T14:28:27;3.85;;;2.90;;
45932;SDS011;51011;46.790;17.184;2022-08-04T14:31:13;4.97;;;2.70;;
45932;SDS011;51011;46.790;17.184;2022-08-04T14:33:40;4.18;;;2.80;;
45932;SDS011;51011;46.790;17.184;2022-08-04T14:36:07;3.40;;;2.85;;
45932;SDS011;51011;46.790;17.184;2022-08-04T14:38:46;5.05;;;2.70;;
45932;SDS011;51011;46.790;17.184;2022-08-04T14:41:17;2.97;;;2.67;;
45932;SDS011;51011;46.790;17.184;2022-08-04T14:43:47;4.25;;;2.70;;
45932;SDS011;51011;46.790;17.184;2022-08-04T14:46:23;3.83;;;2.95;;
45932;SDS011;51011;46.790;17.184;2022-08-04T14:51:44;3.60;;;3.30;;
45932;SDS011;51011;46.790;17.184;2022-08-04T14:54:16;3.95;;;2.80;;
45932;SDS011;51011;46.790;17.184;2022-08-04T14:56:53;3.13;;;2.83;;
45932;SDS011;51011;46.790;17.184;2022-08-04T14:59:22;4.57;;;3.17;;
45932;SDS011;51011;46.790;17.184;2022-08-04T15:01:49;4.05;;;2.67;;
45932;SDS011;51011;46.790;17.184;2022-08-04T15:04:15;3.17;;;2.70;;
45932;SDS011;51011;46.790;17.184;2022-08-04T15:06:42;3.92;;;2.75;;
45932;SDS011;51011;46.790;17.184;2022-08-04T15:09:08;3.28;;;2.70;;
45932;SDS011;51011;46.790;17.184;2022-08-04T15:11:35;4.88;;;2.53;;
45932;SDS011;51011;46.790;17.184;2022-08-04T15:14:01;3.42;;;2.60;;
45932;SDS011;51011;46.790;17.184;2022-08-04T15:16:28;4.47;;;2.50;;
45932;SDS011;51011;46.790;17.184;2022-08-04T15:18:55;5.07;;;2.65;;
45932;SDS011;51011;46.790;17.184;2022-08-04T15:21:21;4.50;;;3.00;;
45932;SDS011;51011;46.790;17.184;2022-08-04T15:23:48;4.18;;;2.58;;
45932;SDS011;51011;46.790;17.184;2022-08-04T15:26:15;4.25;;;2.90;;
45932;SDS011;51011;46.790;17.184;2022-08-04T15:28:45;4.28;;;2.80;;
45932;SDS011;51011;46.790;17.184;2022-08-04T15:31:14;3.95;;;2.90;;
45932;SDS011;51011;46.790;17.184;2022-08-04T15:33:40;3.17;;;2.88;;
45932;SDS011;51011;46.790;17.184;2022-08-04T15:36:14;2.88;;;2.58;;
45932;SDS011;51011;46.790;17.184;2022-08-04T15:38:49;4.07;;;2.72;;
45932;SDS011;51011;46.790;17.184;2022-08-04T15:41:32;3.45;;;2.95;;
45932;SDS011;51011;46.790;17.184;2022-08-04T15:49:21;3.85;;;2.60;;
45932;SDS011;51011;46.790;17.184;2022-08-04T15:51:58;4.28;;;2.80;;
45932;SDS011;51011;46.790;17.184;2022-08-04T15:54:24;5.45;;;3.05;;
45932;SDS011;51011;46.790;17.184;2022-08-04T15:56:50;4.60;;;2.70;;
45932;SDS011;51011;46.790;17.184;2022-08-04T16:00:03;4.68;;;2.75;;
45932;SDS011;51011;46.790;17.184;2022-08-04T16:02:38;3.63;;;3.00;;
45932;SDS011;51011;46.790;17.184;2022-08-04T16:07:55;3.95;;;3.00;;
45932;SDS011;51011;46.790;17.184;2022-08-04T16:13:03;3.85;;;2.90;;
45932;SDS011;51011;46.790;17.184;2022-08-04T16:15:36;3.90;;;2.80;;
45932;SDS011;51011;46.790;17.184;2022-08-04T16:18:11;3.38;;;3.08;;
45932;SDS011;51011;46.790;17.184;2022-08-04T16:20:44;4.28;;;2.97;;
45932;SDS011;51011;46.790;17.184;2022-08-04T16:25:45;2.95;;;2.60;;
45932;SDS011;51011;46.790;17.184;2022-08-04T16:31:00;5.63;;;2.90;;
45932;SDS011;51011;46.790;17.184;2022-08-04T16:33:26;3.42;;;2.80;;
45932;SDS011;51011;46.790;17.184;2022-08-04T16:35:54;4.53;;;2.60;;
45932;SDS011;51011;46.790;17.184;2022-08-04T16:38:20;3.25;;;2.92;;
45932;SDS011;51011;46.790;17.184;2022-08-04T16:40:52;6.32;;;3.30;;
45932;SDS011;51011;46.790;17.184;2022-08-04T16:43:19;5.65;;;3.35;;
45932;SDS011;51011;46.790;17.184;2022-08-04T16:45:54;4.97;;;3.55;;
45932;SDS011;51011;46.790;17.184;2022-08-04T16:48:27;5.70;;;3.80;;
45932;SDS011;51011;46.790;17.184;2022-08-04T16:53:24;4.70;;;4.30;;
45932;SDS011;51011;46.790;17.184;2022-08-04T16:55:52;4.57;;;4.18;;
45932;SDS011;51011;46.790;17.184;2022-08-04T16:58:26;7.28;;;4.10;;
45932;SDS011;51011;46.790;17.184;2022-08-04T17:00:54;5.70;;;3.83;;
45932;SDS011;51011;46.790;17.184;2022-08-04T17:03:20;6.90;;;3.72;;
45932;SDS011;51011;46.790;17.184;2022-08-04T17:05:46;5.72;;;4.00;;
45932;SDS011;51011;46.790;17.184;2022-08-04T17:08:12;5.68;;;3.70;;
45932;SDS011;51011;46.790;17.184;2022-08-04T17:10:39;6.07;;;4.00;;
45932;SDS011;51011;46.790;17.184;2022-08-04T17:13:19;4.65;;;3.58;;
45932;SDS011;51011;46.790;17.184;2022-08-04T17:16:06;5.10;;;3.70;;
45932;SDS011;51011;46.790;17.184;2022-08-04T17:18:37;5.32;;;3.63;;
45932;SDS011;51011;46.790;17.184;2022-08-04T17:23:42;4.55;;;4.03;;
45932;SDS011;51011;46.790;17.184;2022-08-04T17:26:10;5.78;;;3.70;;
45932;SDS011;51011;46.790;17.184;2022-08-04T17:28:37;5.13;;;3.70;;
45932;SDS011;51011;46.790;17.184;2022-08-04T17:31:04;3.83;;;3.53;;
45932;SDS011;51011;46.790;17.184;2022-08-04T17:33:32;5.15;;;3.78;;
45932;SDS011;51011;46.790;17.184;2022-08-04T17:35:58;4.90;;;3.90;;
45932;SDS011;51011;46.790;17.184;2022-08-04T17:38:32;5.40;;;3.85;;
45932;SDS011;51011;46.790;17.184;2022-08-04T17:41:01;4.20;;;3.72;;
45932;SDS011;51011;46.790;17.184;2022-08-04T17:51:50;5.82;;;3.97;;
45932;SDS011;51011;46.790;17.184;2022-08-04T17:54:15;4.90;;;4.20;;
45932;SDS011;51011;46.790;17.184;2022-08-04T17:57:18;4.80;;;4.20;;
45932;SDS011;51011;46.790;17.184;2022-08-04T17:59:45;7.13;;;4.63;;
45932;SDS011;51011;46.790;17.184;2022-08-04T18:02:13;6.70;;;4.63;;
45932;SDS011;51011;46.790;17.184;2022-08-04T18:07:15;7.95;;;4.85;;
45932;SDS011;51011;46.790;17.184;2022-08-04T18:14:47;6.65;;;6.03;;
45932;SDS011;51011;46.790;17.184;2022-08-04T18:17:28;6.65;;;5.30;;
45932;SDS011;51011;46.790;17.184;2022-08-04T18:19:56;5.45;;;4.05;;
45932;SDS011;51011;46.790;17.184;2022-08-04T18:22:21;5.50;;;4.60;;
45932;SDS011;51011;46.790;17.184;2022-08-04T18:24:47;6.03;;;4.65;;
45932;SDS011;51011;46.790;17.184;2022-08-04T18:27:13;6.22;;;3.65;;
45932;SDS011;51011;46.790;17.184;2022-08-04T18:29:39;4.80;;;3.80;;
45932;SDS011;51011;46.790;17.184;2022-08-04T18:32:06;5.65;;;4.00;;
45932;SDS011;51011;46.790;17.184;2022-08-04T18:34:32;6.22;;;4.03;;
45932;SDS011;51011;46.790;17.184;2022-08-04T18:36:57;5.60;;;3.97;;
45932;SDS011;51011;46.790;17.184;2022-08-04T18:39:23;6.95;;;4.40;;
45932;SDS011;51011;46.790;17.184;2022-08-04T18:41:49;7.15;;;4.00;;
45932;SDS011;51011;46.790;17.184;2022-08-04T18:44:15;4.65;;;4.22;;
45932;SDS011;51011;46.790;17.184;2022-08-04T18:46:40;4.60;;;4.00;;
45932;SDS011;51011;46.790;17.184;2022-08-04T18:49:06;4.57;;;4.18;;
45932;SDS011;51011;46.790;17.184;2022-08-04T18:51:34;6.15;;;4.78;;
45932;SDS011;51011;46.790;17.184;2022-08-04T18:54:00;9.48;;;6.05;;
45932;SDS011;51011;46.790;17.184;2022-08-04T18:56:27;6.95;;;6.30;;
45932;SDS011;51011;46.790;17.184;2022-08-04T18:58:53;9.70;;;6.70;;
45932;SDS011;51011;46.790;17.184;2022-08-04T19:01:18;7.80;;;6.20;;
45932;SDS011;51011;46.790;17.184;2022-08-04T19:03:44;10.93;;;6.38;;
45932;SDS011;51011;46.790;17.184;2022-08-04T19:06:09;8.48;;;5.75;;
45932;SDS011;51011;46.790;17.184;2022-08-04T19:08:35;9.25;;;6.57;;
45932;SDS011;51011;46.790;17.184;2022-08-04T19:11:02;7.70;;;5.70;;
45932;SDS011;51011;46.790;17.184;2022-08-04T19:13:28;9.35;;;5.72;;
45932;SDS011;51011;46.790;17.184;2022-08-04T19:15:54;6.82;;;5.85;;
45932;SDS011;51011;46.790;17.184;2022-08-04T19:18:20;7.75;;;6.18;;
45932;SDS011;51011;46.790;17.184;2022-08-04T19:20:45;6.80;;;6.20;;
45932;SDS011;51011;46.790;17.184;2022-08-04T19:23:11;7.97;;;5.70;;
45932;SDS011;51011;46.790;17.184;2022-08-04T19:25:37;8.52;;;5.63;;
45932;SDS011;51011;46.790;17.184;2022-08-04T19:28:03;6.50;;;5.47;;
45932;SDS011;51011;46.790;17.184;2022-08-04T19:30:29;7.68;;;5.90;;
45932;SDS011;51011;46.790;17.184;2022-08-04T19:32:54;10.48;;;6.03;;
45932;SDS011;51011;46.790;17.184;2022-08-04T19:35:20;7.57;;;6.07;;
45932;SDS011;51011;46.790;17.184;2022-08-04T19:37:45;9.13;;;5.75;;
45932;SDS011;51011;46.790;17.184;2022-08-04T19:40:11;8.80;;;5.53;;
45932;SDS011;51011;46.790;17.184;2022-08-04T19:42:39;7.38;;;6.15;;